This is the latest recevied weather packets stored in our database for station/object KO4APQ. If no packets are shown the sender has not sent any weather packets the latest 10 day(s).
| Time | Temp. | Humidity | Pressure | Rain* | Wind** | Luminosity | Snow |
|---|---|---|---|---|---|---|---|
| 1778040774 | 16.67° C | 75% | 1014.6 hPa | 0 mm | - | 0 W/m² | - |
| 1778040471 | 16.67° C | 76% | 1014.7 hPa | 0 mm | - | 0 W/m² | - |
| 1778040168 | 16.67° C | 78% | 1015 hPa | 0 mm | - | 0 W/m² | - |
| 1778039865 | 16.67° C | 77% | 1014.7 hPa | 0 mm | - | 0 W/m² | - |
| 1778039562 | 16.11° C | 78% | 1015 hPa | 0 mm | - | 0 W/m² | - |
| 1778039259 | 16.11° C | 78% | 1014.8 hPa | 0 mm | - | 0 W/m² | - |
| 1778038956 | 15.56° C | 79% | 1014.8 hPa | 0 mm | - | 0 W/m² | - |
| 1778038653 | 15.56° C | 78% | 1015.1 hPa | 0 mm | - | 0 W/m² | - |
| 1778038350 | 15.56° C | 78% | 1015.1 hPa | 0 mm | - | 0 W/m² | - |
| 1778038047 | 16.11° C | 77% | 1014.8 hPa | 0 mm | - | 0 W/m² | - |
| 1778037744 | 16.11° C | 76% | 1015 hPa | 0 mm | - | 0 W/m² | - |
| 1778037440 | 16.67° C | 75% | 1014.7 hPa | 0 mm | - | 0 W/m² | - |
| 1778037138 | 16.67° C | 74% | 1014.7 hPa | 0 mm | - | 0 W/m² | - |
| 1778036836 | 16.67° C | 72% | 1014.6 hPa | 0 mm | - | 0 W/m² | - |
| 1778036533 | 16.67° C | 71% | 1014.7 hPa | 0 mm | - | 0 W/m² | - |
| 1778036229 | 16.67° C | 69% | 1014.7 hPa | 0 mm | - | 0 W/m² | - |
| 1778035926 | 16.67° C | 68% | 1014.7 hPa | 0 mm | - | 0 W/m² | - |
| 1778035623 | 17.22° C | 67% | 1014.6 hPa | 0 mm | - | 0 W/m² | - |
| 1778035319 | 17.78° C | 64% | 1014.7 hPa | 0 mm | - | 0 W/m² | - |
| 1778035016 | 18.33° C | 62% | 1014.6 hPa | 0 mm | - | 0 W/m² | - |
| 1778034713 | 18.89° C | 60% | 1014.7 hPa | 0 mm | - | 0 W/m² | - |
| 1778034410 | 18.89° C | 59% | 1014.6 hPa | 0 mm | - | 0 W/m² | - |
| 1778034108 | 18.33° C | 59% | 1014.5 hPa | 0 mm | - | 0 W/m² | - |
| 1778033806 | 17.78° C | 62% | 1014.5 hPa | 0 mm | - | 0 W/m² | - |
| 1778033503 | 17.78° C | 64% | 1014.6 hPa | 0 mm | - | 0 W/m² | - |
* Rain latest hour (hover to see other rain measurements)
** Current wind speed in m/s (hover to see current wind gust speed)